Blue, Arizona
Current Conditions -  °F | °C
As of 2:55 AM on Saturday 29 Nov 2014 (Local Time) from KJTC Reporting Station
Clear Clear  
Wind Chill: 32°   Ceiling: Unl
Heat Index: 39°   Visibility: 10mi
Dew Point:   Wind: 13mph
Humidity: 22%   Direction: 190°S
Pressure: 30.13"   Gusts: NA
Location:  33.6°N, 109.11°W
Report Text: KJTC 290955Z AUTO 19011KT 10SM CLR 04/M16 A3013 RMK AO2
Loading
Personal Weather Stations






























Interactive Weather Map New forecast layout! Learn more

10-Day Weather Forecast

Advertisements
Track Severe Weather on mobile